Time;durP1;ratioP1;P1;durP2;ratioP2;P2;SDS_P1;SDS_P2;PMS_P1;PMS_P2;Temp;Humidity;BMP_temperature;BMP_pressure;BME280_temperature;BME280_humidity;BME280_pressure;Samples;Min_cycle;Max_cycle;Signal;HPM_P1;HPM_P2
2022/09/21 00:00:43;;;;;;;;;;;9.40;99.90;;;;;;5114746;28;19920;-74
2022/09/21 00:03:09;;;;;;;;;;;9.30;99.90;;;;;;5117204;28;20011;-74
2022/09/21 00:05:34;;;;;;;;;;;9.40;99.90;;;;;;5113272;28;20006;-73
2022/09/21 00:08:01;;;;;;;;;;;9.40;99.90;;;;;;5116316;28;19919;-74
2022/09/21 00:10:27;;;;;;;;;;;9.50;99.90;;;;;;5102512;28;19912;-74
2022/09/21 00:12:52;;;;;;;;;;;9.40;99.90;;;;;;5116560;28;20261;-73
2022/09/21 00:15:18;;;;;;;;;;;9.50;99.90;;;;;;5137389;27;19908;-74
2022/09/21 00:17:49;;;;;;;;;;;9.40;99.90;;;;;;5114427;28;19920;-74
2022/09/21 00:20:15;;;;;;;;;;;9.40;99.90;;;;;;5103018;28;19962;-74
2022/09/21 00:22:41;;;;;;;;;;;9.20;99.90;;;;;;5107296;28;19943;-71
2022/09/21 00:25:07;;;;;;;;;;;9.20;99.90;;;;;;5098431;28;20021;-71
2022/09/21 00:27:33;;;;;;;;;;;9.20;99.90;;;;;;5102604;28;19973;-71
2022/09/21 00:30:01;;;;;;;;;;;9.10;99.90;;;;;;5097339;28;19912;-72
2022/09/21 00:32:27;;;;;;;;;;;9.20;99.90;;;;;;5095967;28;19959;-72
2022/09/21 00:34:53;;;;;;;;;;;9.10;99.90;;;;;;5096988;28;20397;-72
2022/09/21 00:37:19;;;;;;;;;;;9.10;99.90;;;;;;5108978;28;19947;-74
2022/09/21 00:39:45;;;;;;;;;;;9.10;99.90;;;;;;5109940;28;19953;-73
2022/09/21 00:42:19;;;;;;;;;;;9.10;99.90;;;;;;5112288;28;20299;-74
2022/09/21 00:44:45;;;;;;;;;;;9.10;99.90;;;;;;5107643;28;20022;-74
2022/09/21 00:47:11;;;;;;;;;;;9.10;99.90;;;;;;5116004;28;21208;-74
2022/09/21 00:49:38;;;;;;;;;;;9.10;99.90;;;;;;5116873;28;20218;-74
2022/09/21 00:52:08;;;;;;;;;;;9.00;99.90;;;;;;5111185;28;19921;-74
2022/09/21 00:54:39;;;;;;;;;;;9.00;99.90;;;;;;5115980;28;20304;-74
2022/09/21 00:57:06;;;;;;;;;;;8.90;99.90;;;;;;5115965;28;19951;-74
2022/09/21 00:59:37;;;;;;;;;;;8.90;99.90;;;;;;5114032;28;20195;-74
2022/09/21 01:02:05;;;;;;;;;;;8.80;99.90;;;;;;5116067;28;19916;-74
2022/09/21 01:04:36;;;;;;;;;;;8.80;99.90;;;;;;5114771;28;19919;-74
2022/09/21 01:07:27;;;;;;;;;;;8.80;99.90;;;;;;5115000;28;19937;-73
2022/09/21 01:09:57;;;;;;;;;;;8.80;99.90;;;;;;5116479;28;19964;-74
2022/09/21 01:12:26;;;;;;;;;;;8.70;99.90;;;;;;5117106;27;19939;-74
2022/09/21 01:15:15;;;;;;;;;;;8.70;99.90;;;;;;5098748;28;19912;-73
2022/09/21 01:17:47;;;;;;;;;;;8.70;99.90;;;;;;5116132;28;19922;-73
2022/09/21 01:20:25;;;;;;;;;;;8.70;99.90;;;;;;5117002;28;19995;-73
2022/09/21 01:23:06;;;;;;;;;;;8.60;99.90;;;;;;5106552;28;20295;-73
2022/09/21 01:25:31;;;;;;;;;;;8.60;99.90;;;;;;5101084;28;20311;-73
2022/09/21 01:28:18;;;;;;;;;;;8.60;99.90;;;;;;5111797;28;19912;-73
2022/09/21 01:30:44;;;;;;;;;;;8.60;99.90;;;;;;5075016;28;19912;-74
2022/09/21 01:33:18;;;;;;;;;;;8.60;99.90;;;;;;5113711;28;19912;-74
2022/09/21 01:35:47;;;;;;;;;;;8.60;99.90;;;;;;5115371;28;19951;-73
2022/09/21 01:38:16;;;;;;;;;;;8.60;99.90;;;;;;5115989;28;19915;-73
2022/09/21 01:40:43;;;;;;;;;;;8.60;99.90;;;;;;5114203;28;19958;-73
2022/09/21 01:43:11;;;;;;;;;;;8.60;99.90;;;;;;5103954;28;19925;-73
2022/09/21 01:45:39;;;;;;;;;;;8.40;99.90;;;;;;5100753;28;19965;-73
2022/09/21 01:48:05;;;;;;;;;;;8.20;99.90;;;;;;5107034;28;19908;-74
2022/09/21 01:50:34;;;;;;;;;;;8.10;99.90;;;;;;5112387;28;20007;-73
2022/09/21 01:53:05;;;;;;;;;;;8.10;99.90;;;;;;5106789;28;19908;-73
2022/09/21 01:55:37;;;;;;;;;;;8.00;99.90;;;;;;5109646;28;20569;-73
2022/09/21 01:58:28;;;;;;;;;;;8.10;99.90;;;;;;5108801;28;19962;-73
2022/09/21 02:00:56;;;;;;;;;;;8.10;99.90;;;;;;5098246;28;19922;-73
2022/09/21 02:03:40;;;;;;;;;;;8.10;99.90;;;;;;5115223;28;20026;-72
2022/09/21 02:06:07;;;;;;;;;;;8.20;99.90;;;;;;5102234;28;19907;-73
2022/09/21 02:08:32;;;;;;;;;;;8.10;99.90;;;;;;5114843;28;19919;-73
2022/09/21 02:11:00;;;;;;;;;;;8.10;99.90;;;;;;5097003;28;19912;-73
2022/09/21 02:13:29;;;;;;;;;;;8.20;99.90;;;;;;5096603;28;19923;-73
2022/09/21 02:16:06;;;;;;;;;;;8.20;99.90;;;;;;5095399;28;20006;-73
2022/09/21 02:18:42;;;;;;;;;;;8.10;99.90;;;;;;5095218;28;19920;-73
2022/09/21 02:21:15;;;;;;;;;;;8.00;99.90;;;;;;5096164;28;20346;-73
2022/09/21 02:23:50;;;;;;;;;;;8.00;99.90;;;;;;5097123;28;20219;-73
2022/09/21 02:26:19;;;;;;;;;;;8.00;99.90;;;;;;5097538;28;19908;-73
2022/09/21 02:28:44;;;;;;;;;;;8.10;99.90;;;;;;5098352;28;19929;-73
2022/09/21 02:31:15;;;;;;;;;;;8.20;99.90;;;;;;5097943;28;19908;-73
2022/09/21 02:33:46;;;;;;;;;;;8.20;99.90;;;;;;5095044;28;19923;-73
2022/09/21 02:36:20;;;;;;;;;;;8.20;99.90;;;;;;5095189;28;19912;-73
2022/09/21 02:39:03;;;;;;;;;;;8.20;99.90;;;;;;5103038;28;19951;-73
2022/09/21 02:41:39;;;;;;;;;;;8.20;99.90;;;;;;5102632;28;19911;-73
2022/09/21 02:44:06;;;;;;;;;;;8.20;99.90;;;;;;5105737;28;19959;-74
2022/09/21 02:46:43;;;;;;;;;;;8.20;99.90;;;;;;5101084;28;20345;-74
2022/09/21 02:49:15;;;;;;;;;;;8.20;99.90;;;;;;5101543;28;20300;-73
2022/09/21 02:51:47;;;;;;;;;;;8.30;99.90;;;;;;5102154;28;20361;-73
2022/09/21 02:54:16;;;;;;;;;;;8.40;99.90;;;;;;5105000;28;20267;-73
2022/09/21 02:56:45;;;;;;;;;;;8.30;99.90;;;;;;5107308;28;19985;-73
2022/09/21 02:59:11;;;;;;;;;;;8.30;99.90;;;;;;5099867;28;19977;-73
2022/09/21 03:01:38;;;;;;;;;;;8.30;99.90;;;;;;5108748;28;20230;-73
2022/09/21 03:04:03;;;;;;;;;;;8.30;99.90;;;;;;5106256;28;20310;-72
2022/09/21 03:06:30;;;;;;;;;;;8.30;99.90;;;;;;5104914;28;19999;-72
2022/09/21 03:08:57;;;;;;;;;;;8.30;99.90;;;;;;5099402;28;20310;-73
2022/09/21 03:11:28;;;;;;;;;;;8.20;99.90;;;;;;5106997;28;19916;-73
2022/09/21 03:13:59;;;;;;;;;;;8.20;99.90;;;;;;5100597;28;19916;-73
2022/09/21 03:16:25;;;;;;;;;;;8.10;99.90;;;;;;5108976;28;19916;-73
2022/09/21 03:19:08;;;;;;;;;;;8.10;99.90;;;;;;5113909;28;19915;-73
2022/09/21 03:21:41;;;;;;;;;;;8.20;99.90;;;;;;5094637;28;20337;-73
2022/09/21 03:24:44;;;;;;;;;;;8.20;99.90;;;;;;5107182;28;19916;-72
2022/09/21 03:27:00;;;;;;;;;;;8.20;99.90;;;;;;5095732;28;19908;-72
2022/09/21 03:29:25;;;;;;;;;;;8.20;99.90;;;;;;5129529;27;20614;-73
2022/09/21 03:31:54;;;;;;;;;;;8.20;99.90;;;;;;5100796;28;20308;-73
2022/09/21 03:34:20;;;;;;;;;;;8.10;99.90;;;;;;5099000;28;20341;-73
2022/09/21 03:36:47;;;;;;;;;;;8.10;99.90;;;;;;5094523;28;19916;-73
2022/09/21 03:39:12;;;;;;;;;;;8.10;99.90;;;;;;5096378;28;19954;-73
2022/09/21 03:41:38;;;;;;;;;;;8.10;99.90;;;;;;5110514;28;19951;-73
2022/09/21 03:44:04;;;;;;;;;;;8.10;99.90;;;;;;5096606;28;19923;-73
2022/09/21 03:46:29;;;;;;;;;;;8.10;99.90;;;;;;5134511;27;19916;-73
2022/09/21 03:48:55;;;;;;;;;;;8.10;99.90;;;;;;5113355;28;19934;-73
2022/09/21 03:51:23;;;;;;;;;;;8.10;99.90;;;;;;5113120;28;20579;-73
2022/09/21 03:53:49;;;;;;;;;;;8.00;99.90;;;;;;5099508;28;19912;-73
2022/09/21 03:56:14;;;;;;;;;;;8.00;99.90;;;;;;5103177;28;19920;-73
2022/09/21 03:58:40;;;;;;;;;;;8.00;99.90;;;;;;5104944;28;19912;-73
2022/09/21 04:01:06;;;;;;;;;;;8.00;99.90;;;;;;5105842;28;19916;-74
2022/09/21 04:03:31;;;;;;;;;;;7.90;99.90;;;;;;5104795;28;19926;-73
2022/09/21 04:05:57;;;;;;;;;;;7.90;99.90;;;;;;5112445;28;19920;-73
2022/09/21 04:08:22;;;;;;;;;;;7.80;99.90;;;;;;5098854;28;19974;-73
2022/09/21 04:10:48;;;;;;;;;;;7.80;99.90;;;;;;5098232;28;19908;-73
2022/09/21 04:13:13;;;;;;;;;;;7.80;99.90;;;;;;5093444;28;19916;-72
2022/09/21 04:15:39;;;;;;;;;;;7.70;99.90;;;;;;5107838;28;19912;-73
2022/09/21 04:18:05;;;;;;;;;;;7.70;99.90;;;;;;5097548;28;20023;-73
2022/09/21 04:20:31;;;;;;;;;;;7.60;99.90;;;;;;5104623;28;19912;-72
2022/09/21 04:22:56;;;;;;;;;;;7.50;99.90;;;;;;5112010;28;20397;-72
2022/09/21 04:25:22;;;;;;;;;;;7.30;99.90;;;;;;5105536;28;19977;-72
2022/09/21 04:27:47;;;;;;;;;;;7.30;99.90;;;;;;5107081;28;20579;-73
2022/09/21 04:30:14;;;;;;;;;;;7.20;99.90;;;;;;5097112;28;19912;-72
2022/09/21 04:32:39;;;;;;;;;;;7.10;99.90;;;;;;5108554;28;20303;-72
2022/09/21 04:35:05;;;;;;;;;;;7.00;99.90;;;;;;5099743;28;19998;-72
2022/09/21 04:37:31;;;;;;;;;;;6.90;99.90;;;;;;5103640;28;19938;-72
2022/09/21 04:39:56;;;;;;;;;;;6.80;99.90;;;;;;5096741;28;19932;-72
2022/09/21 04:42:22;;;;;;;;;;;6.80;99.90;;;;;;5097374;28;19976;-72
2022/09/21 04:44:47;;;;;;;;;;;6.90;99.90;;;;;;5097217;28;19943;-72
2022/09/21 04:47:14;;;;;;;;;;;7.00;99.90;;;;;;5106672;28;19943;-73
2022/09/21 04:49:39;;;;;;;;;;;7.00;99.90;;;;;;5105525;28;19908;-73
2022/09/21 04:52:04;;;;;;;;;;;7.00;99.90;;;;;;5114095;28;19998;-73
2022/09/21 04:54:30;;;;;;;;;;;7.10;99.90;;;;;;5116212;28;19908;-73
2022/09/21 04:56:56;;;;;;;;;;;7.10;99.90;;;;;;5102136;28;20295;-73
2022/09/21 04:59:21;;;;;;;;;;;7.10;99.90;;;;;;5104023;28;19915;-73
2022/09/21 05:01:47;;;;;;;;;;;7.10;99.90;;;;;;5104532;27;19956;-74
2022/09/21 05:04:12;;;;;;;;;;;7.20;99.90;;;;;;5107110;28;19912;-74
2022/09/21 05:06:38;;;;;;;;;;;7.20;99.90;;;;;;5096634;28;19931;-73
2022/09/21 05:11:48;;;;;;;;;;;7.40;99.90;;;;;;5096848;28;19989;-73
2022/09/21 05:14:14;;;;;;;;;;;7.30;99.90;;;;;;5095015;28;20318;-74
2022/09/21 05:16:39;;;;;;;;;;;7.30;99.90;;;;;;5104714;28;19908;-73
2022/09/21 05:19:05;;;;;;;;;;;7.30;99.90;;;;;;5101021;28;19961;-73
2022/09/21 05:21:31;;;;;;;;;;;7.30;99.90;;;;;;5096515;28;19958;-74
2022/09/21 05:23:58;;;;;;;;;;;7.40;99.90;;;;;;5096495;28;19962;-73
2022/09/21 05:26:24;;;;;;;;;;;7.40;99.90;;;;;;5095522;28;19965;-73
2022/09/21 05:28:53;;;;;;;;;;;7.30;99.90;;;;;;5110873;28;20283;-74
2022/09/21 05:31:31;;;;;;;;;;;7.40;99.90;;;;;;5108699;28;20354;-73
2022/09/21 05:34:12;;;;;;;;;;;7.40;99.90;;;;;;5103793;28;19955;-73
2022/09/21 05:36:41;;;;;;;;;;;7.30;99.90;;;;;;5110115;28;19914;-73
2022/09/21 05:39:07;;;;;;;;;;;7.40;99.90;;;;;;5115926;28;19918;-73
2022/09/21 05:41:32;;;;;;;;;;;7.60;99.90;;;;;;5115114;28;19907;-74
2022/09/21 05:43:58;;;;;;;;;;;7.60;99.90;;;;;;5113084;28;20273;-73
2022/09/21 05:46:47;;;;;;;;;;;7.50;99.90;;;;;;5105753;27;19923;-73
2022/09/21 05:49:19;;;;;;;;;;;7.60;99.90;;;;;;5069106;28;19918;-73
2022/09/21 05:51:47;;;;;;;;;;;7.70;99.90;;;;;;5108324;27;20299;-73
2022/09/21 05:54:33;;;;;;;;;;;7.70;99.90;;;;;;5108995;28;20279;-73
2022/09/21 05:57:17;;;;;;;;;;;7.80;99.90;;;;;;5113562;28;19919;-73
2022/09/21 06:00:00;;;;;;;;;;;7.80;99.90;;;;;;5111894;28;19908;-73
2022/09/21 06:02:28;;;;;;;;;;;7.80;99.90;;;;;;5111152;27;20227;-73
2022/09/21 06:04:56;;;;;;;;;;;8.00;99.90;;;;;;5109943;27;19927;-73
2022/09/21 06:07:21;;;;;;;;;;;8.10;99.90;;;;;;5112279;28;19912;-73
2022/09/21 06:09:47;;;;;;;;;;;8.30;99.90;;;;;;5111079;28;19969;-73
2022/09/21 06:12:12;;;;;;;;;;;8.40;99.90;;;;;;5058576;27;19920;-74
2022/09/21 06:14:38;;;;;;;;;;;8.50;99.90;;;;;;5098538;27;19926;-73
2022/09/21 06:17:04;;;;;;;;;;;8.50;99.90;;;;;;5095059;28;19923;-73
2022/09/21 06:19:29;;;;;;;;;;;8.60;99.90;;;;;;5094604;28;19908;-73
2022/09/21 06:21:55;;;;;;;;;;;8.70;99.90;;;;;;5095733;28;19912;-73
2022/09/21 06:24:20;;;;;;;;;;;8.80;99.90;;;;;;5094856;28;20251;-73
2022/09/21 06:26:46;;;;;;;;;;;8.80;99.90;;;;;;5094951;28;20318;-73
2022/09/21 06:29:11;;;;;;;;;;;8.80;99.90;;;;;;5097081;28;19912;-74
2022/09/21 06:31:37;;;;;;;;;;;8.90;99.90;;;;;;5096878;28;19912;-73
2022/09/21 06:34:02;;;;;;;;;;;8.90;99.90;;;;;;5095715;28;20022;-74
2022/09/21 06:36:28;;;;;;;;;;;9.00;99.90;;;;;;5100666;28;19915;-73
2022/09/21 06:38:54;;;;;;;;;;;9.20;99.90;;;;;;5093993;28;20336;-73
2022/09/21 06:41:19;;;;;;;;;;;9.30;99.90;;;;;;5098542;28;19915;-72
2022/09/21 06:43:45;;;;;;;;;;;9.30;99.90;;;;;;5094564;28;19916;-73
2022/09/21 06:46:10;;;;;;;;;;;9.40;99.90;;;;;;5123380;27;19918;-73
2022/09/21 06:48:36;;;;;;;;;;;9.50;99.90;;;;;;5107432;28;19918;-73
2022/09/21 06:51:03;;;;;;;;;;;9.60;99.90;;;;;;5095462;28;19947;-73
2022/09/21 06:53:29;;;;;;;;;;;9.80;99.90;;;;;;5098972;28;19915;-73
2022/09/21 06:56:04;;;;;;;;;;;9.90;99.90;;;;;;5110977;28;19923;-73
2022/09/21 06:58:33;;;;;;;;;;;10.20;99.90;;;;;;5111151;28;19912;-74
2022/09/21 07:01:02;;;;;;;;;;;10.70;99.90;;;;;;5097823;28;20253;-74
2022/09/21 07:03:28;;;;;;;;;;;11.20;99.90;;;;;;5110350;28;19916;-74
2022/09/21 07:05:53;;;;;;;;;;;11.90;99.90;;;;;;5094203;28;20203;-73
2022/09/21 07:08:19;;;;;;;;;;;12.40;99.90;;;;;;5096441;28;19911;-73
2022/09/21 07:10:44;;;;;;;;;;;13.00;99.90;;;;;;5101776;28;19912;-73
2022/09/21 07:13:10;;;;;;;;;;;13.60;99.90;;;;;;5107717;28;19916;-73
2022/09/21 07:15:36;;;;;;;;;;;14.20;99.90;;;;;;5100071;28;19951;-73
2022/09/21 07:18:09;;;;;;;;;;;14.60;99.90;;;;;;5092953;28;19916;-74
2022/09/21 07:20:34;;;;;;;;;;;15.00;99.90;;;;;;5093195;28;19959;-74
2022/09/21 07:23:00;;;;;;;;;;;15.30;99.90;;;;;;5092741;28;19951;-73
2022/09/21 07:25:26;;;;;;;;;;;15.60;99.90;;;;;;5109857;28;19924;-73
2022/09/21 07:27:52;;;;;;;;;;;15.80;99.90;;;;;;5096136;28;19916;-75
2022/09/21 07:30:17;;;;;;;;;;;15.80;99.90;;;;;;5095845;28;19931;-74
2022/09/21 07:32:43;;;;;;;;;;;16.00;99.90;;;;;;5094081;28;20307;-73
2022/09/21 07:35:09;;;;;;;;;;;16.40;99.90;;;;;;5095751;28;19912;-74
2022/09/21 07:37:34;;;;;;;;;;;16.90;99.90;;;;;;5103403;28;19961;-74
2022/09/21 07:40:04;;;;;;;;;;;17.40;99.90;;;;;;5069891;27;20299;-74
2022/09/21 07:42:29;;;;;;;;;;;17.90;99.90;;;;;;5093616;28;19908;-73
2022/09/21 07:44:55;;;;;;;;;;;18.20;99.90;;;;;;5092572;28;20215;-73
2022/09/21 07:47:24;;;;;;;;;;;18.60;99.90;;;;;;5104194;28;20315;-73
2022/09/21 07:49:49;;;;;;;;;;;19.00;99.90;;;;;;5105274;28;20223;-73
2022/09/21 07:52:15;;;;;;;;;;;19.40;99.90;;;;;;5097693;28;19915;-73
2022/09/21 07:54:40;;;;;;;;;;;19.60;99.90;;;;;;5110108;28;19919;-73
2022/09/21 07:59:50;;;;;;;;;;;19.20;99.90;;;;;;5099413;28;19914;-73
2022/09/21 08:02:16;;;;;;;;;;;18.70;99.90;;;;;;5105666;28;19916;-73
2022/09/21 08:04:41;;;;;;;;;;;18.40;99.90;;;;;;5109206;27;20334;-74
2022/09/21 08:07:07;;;;;;;;;;;18.20;99.90;;;;;;5110860;28;19915;-74
2022/09/21 08:09:32;;;;;;;;;;;18.10;99.90;;;;;;5110001;28;19999;-73
2022/09/21 08:12:00;;;;;;;;;;;18.10;99.90;;;;;;5103565;28;19954;-73
2022/09/21 08:14:25;;;;;;;;;;;18.40;99.90;;;;;;5097771;28;19946;-73
2022/09/21 08:16:51;;;;;;;;;;;19.10;99.90;;;;;;5114232;27;19920;-74
2022/09/21 08:19:16;;;;;;;;;;;19.80;99.90;;;;;;5113003;28;19912;-74
2022/09/21 08:21:42;;;;;;;;;;;20.50;99.90;;;;;;5106505;28;19915;-74
2022/09/21 08:24:08;;;;;;;;;;;20.80;99.90;;;;;;5099788;28;19920;-74
2022/09/21 08:26:34;;;;;;;;;;;20.80;99.90;;;;;;5100324;28;20292;-74
2022/09/21 08:29:02;;;;;;;;;;;20.50;99.90;;;;;;5097214;28;20284;-74
2022/09/21 08:31:29;;;;;;;;;;;20.10;99.90;;;;;;5099718;27;19912;-74
2022/09/21 08:33:56;;;;;;;;;;;19.70;99.90;;;;;;5110095;28;19999;-73
2022/09/21 08:36:22;;;;;;;;;;;19.40;99.90;;;;;;5103059;28;19912;-74
2022/09/21 08:38:47;;;;;;;;;;;19.10;99.90;;;;;;5105568;28;19907;-74
2022/09/21 08:41:23;;;;;;;;;;;19.10;99.90;;;;;;5096850;27;19912;-75
2022/09/21 08:43:51;;;;;;;;;;;19.40;99.90;;;;;;5115193;27;19922;-75
2022/09/21 08:46:18;;;;;;;;;;;19.90;99.90;;;;;;5096486;28;20299;-74
2022/09/21 08:49:10;;;;;;;;;;;20.40;99.90;;;;;;5110447;28;20624;-74
2022/09/21 08:51:40;;;;;;;;;;;20.70;99.90;;;;;;5090822;28;19981;-74
2022/09/21 08:54:08;;;;;;;;;;;21.00;99.90;;;;;;5095394;28;19908;-73
2022/09/21 08:56:35;;;;;;;;;;;21.30;99.90;;;;;;5104832;28;19967;-74
2022/09/21 08:59:01;;;;;;;;;;;21.40;99.90;;;;;;5097884;28;19973;-74
2022/09/21 09:01:38;;;;;;;;;;;21.90;98.60;;;;;;5095490;28;19916;-75
2022/09/21 09:04:22;;;;;;;;;;;22.00;98.80;;;;;;5107764;28;19964;-74
2022/09/21 09:07:00;;;;;;;;;;;22.30;97.80;;;;;;5109468;28;19914;-74
2022/09/21 09:09:28;;;;;;;;;;;22.60;96.80;;;;;;5107562;28;20410;-74
2022/09/21 09:11:54;;;;;;;;;;;22.90;96.60;;;;;;5102791;28;19927;-74
2022/09/21 09:14:19;;;;;;;;;;;23.00;96.80;;;;;;5097839;28;19916;-73
2022/09/21 09:16:57;;;;;;;;;;;23.30;96.20;;;;;;5095693;28;19909;-74
2022/09/21 09:19:23;;;;;;;;;;;23.40;97.00;;;;;;5095218;28;19915;-75
2022/09/21 09:21:48;;;;;;;;;;;23.50;95.50;;;;;;5107592;28;19908;-76
2022/09/21 09:24:33;;;;;;;;;;;23.40;95.30;;;;;;5102136;28;20501;-75
2022/09/21 09:27:21;;;;;;;;;;;23.10;95.30;;;;;;5099616;28;19908;-74
2022/09/21 09:29:50;;;;;;;;;;;22.80;95.90;;;;;;5103559;28;19912;-74
2022/09/21 09:32:16;;;;;;;;;;;22.50;96.30;;;;;;5111414;28;19961;-73
2022/09/21 09:34:44;;;;;;;;;;;22.40;96.80;;;;;;5097370;28;19935;-74
2022/09/21 09:37:11;;;;;;;;;;;22.20;95.80;;;;;;5100977;28;20265;-75
2022/09/21 09:39:37;;;;;;;;;;;22.00;97.20;;;;;;5101352;28;19964;-75
2022/09/21 09:42:22;;;;;;;;;;;21.90;97.90;;;;;;5096463;27;19920;-73
2022/09/21 09:45:05;;;;;;;;;;;21.80;97.20;;;;;;5110524;27;19912;-74
2022/09/21 09:47:45;;;;;;;;;;;21.60;95.80;;;;;;5106368;28;19934;-74
2022/09/21 09:50:19;;;;;;;;;;;21.50;96.90;;;;;;5104655;28;19919;-74
2022/09/21 09:52:45;;;;;;;;;;;21.50;97.30;;;;;;5094869;27;19930;-77
2022/09/21 09:55:15;;;;;;;;;;;21.60;97.60;;;;;;5110408;28;20015;-74
2022/09/21 09:57:40;;;;;;;;;;;21.80;97.10;;;;;;5103422;28;19912;-74
2022/09/21 10:00:10;;;;;;;;;;;21.90;97.50;;;;;;5111451;28;19919;-74
2022/09/21 10:02:59;;;;;;;;;;;21.70;96.40;;;;;;5107477;28;19911;-75
2022/09/21 10:05:27;;;;;;;;;;;21.60;97.90;;;;;;5094649;28;20291;-74
2022/09/21 10:07:53;;;;;;;;;;;21.60;97.60;;;;;;5104732;28;19951;-73
2022/09/21 10:10:22;;;;;;;;;;;21.50;98.20;;;;;;5096240;28;19939;-73
2022/09/21 10:12:48;;;;;;;;;;;21.50;98.20;;;;;;5093891;28;19966;-73
2022/09/21 10:15:15;;;;;;;;;;;21.40;96.60;;;;;;5093694;28;19912;-74
2022/09/21 10:17:43;;;;;;;;;;;21.30;98.10;;;;;;5095978;28;20325;-73
2022/09/21 10:20:14;;;;;;;;;;;21.30;98.20;;;;;;5118652;27;20286;-73
2022/09/21 10:22:41;;;;;;;;;;;21.30;97.50;;;;;;5093457;28;19916;-73
2022/09/21 10:25:13;;;;;;;;;;;21.20;97.00;;;;;;5098379;28;19919;-73
2022/09/21 10:27:42;;;;;;;;;;;21.20;97.40;;;;;;5111284;28;19916;-74
2022/09/21 10:30:27;;;;;;;;;;;21.00;97.80;;;;;;5105535;28;20188;-73
2022/09/21 10:32:55;;;;;;;;;;;20.80;98.60;;;;;;5109571;28;20241;-75
2022/09/21 10:35:20;;;;;;;;;;;20.70;99.80;;;;;;5107504;28;19923;-73
2022/09/21 10:37:53;;;;;;;;;;;20.90;98.20;;;;;;5103940;28;20352;-73
2022/09/21 10:40:18;;;;;;;;;;;20.90;97.40;;;;;;5094886;28;20317;-73
2022/09/21 10:42:44;;;;;;;;;;;20.80;99.50;;;;;;5098148;28;19916;-73
2022/09/21 10:45:17;;;;;;;;;;;20.80;96.60;;;;;;5109810;28;20307;-73
2022/09/21 10:47:54;;;;;;;;;;;20.60;98.60;;;;;;5094356;28;19912;-73
2022/09/21 10:50:25;;;;;;;;;;;20.70;97.80;;;;;;5104642;28;19912;-73
2022/09/21 10:52:55;;;;;;;;;;;20.70;97.20;;;;;;5107802;28;20371;-71
2022/09/21 10:55:22;;;;;;;;;;;20.40;96.60;;;;;;5106976;28;19924;-72
2022/09/21 10:57:48;;;;;;;;;;;19.90;97.20;;;;;;5112259;28;19919;-73
2022/09/21 11:00:20;;;;;;;;;;;19.30;98.70;;;;;;5112975;28;19914;-73
2022/09/21 11:02:47;;;;;;;;;;;19.40;98.90;;;;;;5093907;28;19958;-72
2022/09/21 11:05:14;;;;;;;;;;;19.50;97.70;;;;;;5104207;28;19912;-73
2022/09/21 11:08:01;;;;;;;;;;;19.50;98.90;;;;;;5093179;28;20266;-72
2022/09/21 11:10:53;;;;;;;;;;;19.80;99.20;;;;;;5106963;28;20393;-73
2022/09/21 11:13:34;;;;;;;;;;;19.90;98.90;;;;;;5069937;28;20297;-73
2022/09/21 11:15:59;;;;;;;;;;;20.00;97.70;;;;;;5093621;28;19954;-73
2022/09/21 11:18:43;;;;;;;;;;;20.20;97.80;;;;;;5093286;28;20255;-74
2022/09/21 11:21:15;;;;;;;;;;;20.10;97.30;;;;;;5092799;28;19916;-74
2022/09/21 11:23:40;;;;;;;;;;;20.00;97.60;;;;;;5084153;28;19951;-74
2022/09/21 11:26:10;;;;;;;;;;;20.10;99.00;;;;;;5093246;28;19966;-73
2022/09/21 11:28:54;;;;;;;;;;;20.30;98.80;;;;;;5094672;28;20019;-73
2022/09/21 11:31:19;;;;;;;;;;;20.50;97.10;;;;;;5098816;28;19907;-73
2022/09/21 11:34:04;;;;;;;;;;;20.40;96.50;;;;;;5099861;28;19953;-73
2022/09/21 11:36:48;;;;;;;;;;;20.10;97.30;;;;;;5095333;28;19914;-75
2022/09/21 11:39:19;;;;;;;;;;;19.70;98.40;;;;;;5096103;28;20295;-76
2022/09/21 11:41:48;;;;;;;;;;;19.60;98.40;;;;;;5094174;28;20307;-73
2022/09/21 11:44:27;;;;;;;;;;;19.70;97.50;;;;;;5102327;28;19930;-74
2022/09/21 11:46:56;;;;;;;;;;;19.90;97.40;;;;;;5102054;28;19950;-75
2022/09/21 11:49:26;;;;;;;;;;;20.00;96.70;;;;;;5104608;28;19916;-74
2022/09/21 11:52:15;;;;;;;;;;;19.70;97.00;;;;;;5117583;28;19918;-74
2022/09/21 11:55:13;;;;;;;;;;;19.70;98.00;;;;;;5073817;28;20259;-74
2022/09/21 11:57:44;;;;;;;;;;;19.60;97.00;;;;;;5033584;28;19913;-74
2022/09/21 12:00:14;;;;;;;;;;;19.60;97.70;;;;;;5032770;28;19915;-75
2022/09/21 12:02:58;;;;;;;;;;;19.40;97.30;;;;;;5048766;28;20340;-74
2022/09/21 12:05:24;;;;;;;;;;;19.20;97.90;;;;;;5031490;28;19972;-73
2022/09/21 12:08:08;;;;;;;;;;;19.20;98.30;;;;;;5035711;28;19952;-74
2022/09/21 12:10:52;;;;;;;;;;;19.30;97.90;;;;;;5057615;28;20357;-74
2022/09/21 12:13:27;;;;;;;;;;;19.50;97.00;;;;;;5024245;28;19995;-74
2022/09/21 12:15:54;;;;;;;;;;;19.50;96.70;;;;;;5045311;28;20093;-74
2022/09/21 12:18:22;;;;;;;;;;;19.60;95.40;;;;;;5047213;28;20311;-73
2022/09/21 12:20:53;;;;;;;;;;;19.60;96.60;;;;;;5045918;28;19935;-74
2022/09/21 12:23:37;;;;;;;;;;;19.70;97.20;;;;;;5039500;28;20327;-73
2022/09/21 12:26:03;;;;;;;;;;;19.70;96.70;;;;;;5047240;28;19917;-73
2022/09/21 12:28:43;;;;;;;;;;;19.80;96.50;;;;;;5046991;28;19956;-75
2022/09/21 12:31:18;;;;;;;;;;;19.90;96.90;;;;;;5063451;28;19913;-75
2022/09/21 12:33:50;;;;;;;;;;;19.70;96.00;;;;;;5084548;28;19912;-74
2022/09/21 12:36:19;;;;;;;;;;;19.40;96.20;;;;;;5107305;27;19912;-74
2022/09/21 12:39:02;;;;;;;;;;;19.30;96.20;;;;;;5097376;28;20210;-74
2022/09/21 12:41:30;;;;;;;;;;;19.30;96.80;;;;;;5107448;28;19923;-74
2022/09/21 12:44:01;;;;;;;;;;;19.50;97.40;;;;;;5113520;28;19935;-74
2022/09/21 12:46:33;;;;;;;;;;;19.70;97.40;;;;;;5114468;28;19911;-73
2022/09/21 12:49:00;;;;;;;;;;;19.80;96.80;;;;;;5105202;28;19913;-73
2022/09/21 12:51:34;;;;;;;;;;;19.70;96.20;;;;;;5108891;27;19920;-74
2022/09/21 12:54:07;;;;;;;;;;;19.70;97.40;;;;;;5096006;27;20176;-74
2022/09/21 12:56:33;;;;;;;;;;;19.80;95.80;;;;;;5100665;28;19930;-74
2022/09/21 12:59:17;;;;;;;;;;;19.90;96.70;;;;;;5111070;27;19916;-74
2022/09/21 13:01:52;;;;;;;;;;;19.90;96.80;;;;;;5096692;28;19920;-75
2022/09/21 13:04:23;;;;;;;;;;;20.10;97.20;;;;;;5096380;28;19934;-74
2022/09/21 13:06:50;;;;;;;;;;;20.30;96.70;;;;;;5092080;27;19999;-75
2022/09/21 13:09:17;;;;;;;;;;;20.40;96.70;;;;;;5103438;28;19953;-74
2022/09/21 13:11:53;;;;;;;;;;;20.50;96.90;;;;;;5102156;28;20315;-74
2022/09/21 13:14:19;;;;;;;;;;;20.60;96.00;;;;;;5102760;28;20000;-74
2022/09/21 13:16:52;;;;;;;;;;;20.50;94.20;;;;;;5109136;28;20294;-74
2022/09/21 13:19:22;;;;;;;;;;;20.40;95.80;;;;;;5114009;28;19912;-74
2022/09/21 13:22:13;;;;;;;;;;;20.30;94.60;;;;;;5104236;28;19912;-74
2022/09/21 13:24:41;;;;;;;;;;;19.90;94.00;;;;;;5094810;27;19966;-73
2022/09/21 13:27:07;;;;;;;;;;;19.50;94.80;;;;;;5113605;28;19943;-74
2022/09/21 13:29:38;;;;;;;;;;;19.50;95.80;;;;;;5109856;28;19915;-73
2022/09/21 13:32:10;;;;;;;;;;;19.40;95.90;;;;;;5104094;27;20265;-74
2022/09/21 13:34:37;;;;;;;;;;;19.40;96.40;;;;;;5105450;28;19916;-74
2022/09/21 13:37:13;;;;;;;;;;;19.50;94.70;;;;;;5107146;28;19926;-73
2022/09/21 13:39:49;;;;;;;;;;;19.50;94.60;;;;;;5104537;27;20010;-72
2022/09/21 13:42:38;;;;;;;;;;;19.60;94.30;;;;;;5113673;28;19911;-74
2022/09/21 13:45:03;;;;;;;;;;;19.70;94.70;;;;;;5098695;28;19938;-74
2022/09/21 13:47:33;;;;;;;;;;;19.70;94.90;;;;;;5107236;28;20306;-74
2022/09/21 13:50:09;;;;;;;;;;;19.80;96.30;;;;;;5108865;27;20250;-73
2022/09/21 13:52:50;;;;;;;;;;;19.90;95.30;;;;;;5114484;28;19959;-72
2022/09/21 13:55:20;;;;;;;;;;;19.90;95.60;;;;;;5110150;28;20318;-74
2022/09/21 13:57:47;;;;;;;;;;;19.90;95.30;;;;;;5114913;28;19912;-75
2022/09/21 14:00:12;;;;;;;;;;;19.90;95.80;;;;;;5107159;28;19908;-74
2022/09/21 14:02:39;;;;;;;;;;;19.90;95.70;;;;;;5107093;28;19954;-74
2022/09/21 14:05:18;;;;;;;;;;;19.90;96.60;;;;;;5111344;28;20044;-73
2022/09/21 14:07:45;;;;;;;;;;;19.90;95.00;;;;;;5103664;27;19916;-74
2022/09/21 14:10:18;;;;;;;;;;;19.80;96.10;;;;;;5095312;28;19978;-73
2022/09/21 14:12:44;;;;;;;;;;;19.60;94.10;;;;;;5101848;28;19908;-73
2022/09/21 14:15:29;;;;;;;;;;;19.40;93.90;;;;;;5099174;28;19923;-74
2022/09/21 14:18:25;;;;;;;;;;;19.40;95.00;;;;;;5087520;27;19963;-73
2022/09/21 14:21:06;;;;;;;;;;;19.40;95.70;;;;;;5085302;28;20223;-73
2022/09/21 14:23:32;;;;;;;;;;;19.30;93.80;;;;;;5093467;28;19912;-73
2022/09/21 14:26:00;;;;;;;;;;;19.30;94.50;;;;;;5096117;28;19908;-74
2022/09/21 14:28:33;;;;;;;;;;;19.30;96.40;;;;;;5094189;28;19918;-73
2022/09/21 14:31:01;;;;;;;;;;;19.40;95.00;;;;;;5111792;27;19994;-73
2022/09/21 14:33:29;;;;;;;;;;;19.30;96.40;;;;;;5105215;28;19927;-72
2022/09/21 14:35:55;;;;;;;;;;;19.30;96.80;;;;;;5094899;28;20007;-73
2022/09/21 14:38:39;;;;;;;;;;;19.20;96.40;;;;;;5098354;28;20019;-74
2022/09/21 14:41:06;;;;;;;;;;;19.00;96.40;;;;;;5104333;28;19915;-76
2022/09/21 14:43:34;;;;;;;;;;;18.70;97.00;;;;;;5111807;28;19916;-73
2022/09/21 14:46:07;;;;;;;;;;;18.60;97.60;;;;;;5109319;28;19939;-74